Historyczne dane pomiarowe

Dodano dane terminowe – wersja testowa.

Dane z okresu 1951-2019

Wersja bazy: 1.34 [2019-03-16, lista zmian], aktualizacja planowana na 2019-04-15

Dane meteo z obszaru Polski uzyskane na podstawie danych udostępnionych przez Instytut Meteorologii i Gospodarki Wodnej – Państwowy Instytut Badawczy.

 

Wybierz Datę:    

       

TemperaturaWilgotnośćWiatrCiśnienieOpadyŚniegCzas trwania zjawisk
 Stacja t tx tn tng RH VA  wxwx mslp ppp RRR   cm mm wxwxwxwxwxwxwx
1994-08-14 14.3 18.5 10.9 10.0-- 6.5----- 1.2 1.2 0.0- 0.0 6.0-------
1994-08-13 18.3 23.8 13.2 10.1-- 7.1----- 1.0 0.4 0.6- 0.0 1.6-------
1994-08-12 16.7 22.7 10.9 8.1-- 6.8----- 0.0 0.0 0.0- 0.0 4.2-------
1994-08-11 18.8 25.1 9.5 7.1-- 5.4----- 0.0 0.0 0.0- 0.0 9.8-------
1994-08-10 19.9 24.7 14.3 12.6-- 5.1----- 0.0 0.0 0.0- 0.0 9.6-------
1994-08-09 20.4 23.7 14.9 13.4-- 7.0----- 0.0 0.0 0.0- 0.0 2.7-------
1994-08-08 19.9 25.5 14.7 12.7-- 6.5----- 0.0 0.0 0.0- 0.0 4.1-------
1994-08-07 22.0 25.9 18.0 14.4-- 4.9----- 0.0 0.0 0.0- 0.0 11.4-------
1994-08-06 25.3 33.8 19.2 16.4-- 5.5----- 0.0 0.0 0.0- 0.0 10.0-------
1994-08-05 23.3 30.5 16.2 14.5-- 4.9----- 0.0 0.0 0.0- 0.0 9.5-------
1994-08-04 23.1 30.2 18.1 16.5-- 5.1----- 0.0 0.0 0.0- 0.0 8.5-------
1994-08-03 22.7 29.6 18.7 17.4-- 7.1----- 0.0 0.0 0.0- 0.0 2.0-------
1994-08-02 25.7 33.0 17.1 15.2-- 3.6----- 20.2 0.0 20.2- 0.0 10.9-------
1994-08-01 25.6 33.2 21.2 18.2-- 5.9----- 0.0 0.0 0.0- 0.0 8.0-------
1994-07-31 28.0 34.8 19.3 15.5-- 4.1----- 1.3 0.0 1.3- 0.0 10.5-------
1994-07-30 27.6 34.4 18.4 15.5-- 3.8----- 0.0 0.0 0.0- 0.0 11.0-------
1994-07-29 26.9 33.9 17.7 14.6-- 3.3----- 0.0 0.0 0.0- 0.0 11.8-------
1994-07-28 25.7 33.0 15.7 11.4-- 3.9----- 0.0 0.0 0.0- 0.0 13.0-------
1994-07-27 25.2 32.3 15.1 11.0-- 3.9----- 0.0 0.0 0.0- 0.0 13.9-------
1994-07-26 24.1 30.6 14.5 11.0-- 3.5----- 0.0 0.0 0.0- 0.0 12.8-------
1994-07-25 22.1 29.5 12.7 9.1-- 4.0----- 0.0 0.0 0.0- 0.0 12.1-------
1994-07-24 21.4 28.5 12.0 8.8-- 3.8----- 0.0 0.0 0.0- 0.0 14.2-------
1994-07-23 20.1 27.6 10.9 7.6-- 4.5----- 0.0 0.0 0.0- 0.0 13.3-------
1994-07-22 18.2 25.6 10.4 8.1-- 5.1----- 0.0 0.0 0.0- 0.0 10.0-------
1994-07-21 18.6 25.9 10.6 7.1-- 4.5----- 0.0 0.0 0.0- 0.0 14.0-------
1994-07-20 17.1 23.1 9.0 7.1-- 3.6----- 0.0 0.0 0.0- 0.0 14.6-------
1994-07-19 16.1 21.1 9.9 8.0-- 5.3----- 0.0 0.0 0.0- 0.0 12.2-------
1994-07-18 17.3 22.6 11.5 9.5-- 4.4----- 0.0 0.0 0.0- 0.0 12.7-------
1994-07-17 19.7 23.6 16.3 13.6-- 5.8----- 0.0 0.0 0.0- 0.0 10.8-------
1994-07-16 23.2 31.0 16.5 14.2-- 5.5----- 0.0 0.0 0.0- 0.0 10.2-------
1994-07-15 25.0 31.1 17.8 14.8-- 4.0----- 0.0 0.0 0.0- 0.0 15.1-------
1994-07-14 25.6 30.7 19.5 17.6-- 4.4----- 0.0 0.0 0.0- 0.0 14.2-------
1994-07-13 24.9 30.0 15.8 13.2-- 4.5----- 0.0 0.0 0.0- 0.0 13.1-------
1994-07-12 23.6 29.8 15.8 11.6-- 4.9----- 0.0 0.0 0.0- 0.0 12.9-------
1994-07-11 21.2 28.2 13.9 11.1-- 4.5----- 0.0 0.0 0.0- 0.0 11.3-------
1994-07-10 19.8 26.5 11.1 9.1-- 4.1----- 0.0 0.0 0.0- 0.0 12.4-------
1994-07-09 16.3 21.3 11.5 10.4-- 6.3----- 16.6 16.6 0.0- 0.0 8.0-------
1994-07-08 17.5 24.5 12.8 9.0-- 7.0----- 11.2 11.2 0.0- 0.0 6.5-------
1994-07-07 17.8 23.8 9.0 6.9-- 4.5----- 0.0 0.0 0.0- 0.0 14.2-------
1994-07-06 17.2 22.9 8.7 5.4-- 5.0----- 0.0 0.0 0.0- 0.0 13.9-------
1994-07-05 16.5 23.1 8.0 6.1-- 4.6----- 0.0 0.0 0.0- 0.0 14.6-------
1994-07-04 17.4 24.5 9.1 7.0-- 4.4----- 0.0 0.0 0.0- 0.0 14.5-------
1994-07-03 15.5 22.3 6.5 3.9-- 4.9----- 0.0 0.0 0.0- 0.0 12.3-------
1994-07-02 15.0 20.9 8.7 5.1-- 3.4----- 0.0 0.0 0.0- 0.0 13.1-------
1994-07-01 14.9 19.1 10.0 7.5-- 4.9----- 0.0 0.0 0.0- 0.0 13.7-------
1994-06-30 17.5 24.6 16.0 14.9-- 6.0----- 0.0 0.0 0.0- 0.0 6.4-------
1994-06-29 20.2 26.6 11.4 8.6-- 3.4----- 5.3 0.0 5.3- 0.0 13.8-------
1994-06-28 18.9 25.0 10.6 7.8-- 4.0----- 0.0 0.0 0.0- 0.0 15.0-------
1994-06-27 19.2 25.7 14.1 12.1-- 6.4----- 0.0 0.0 0.0- 0.0 8.5-------
1994-06-26 20.9 28.0 11.3 8.5-- 3.4----- 0.0 0.0 0.0- 0.0 13.9-------
1994-06-25 14.9 21.1 6.2 4.2-- 3.9----- 0.0 0.0 0.0- 0.0 15.1-------
1994-06-24 11.9 15.3 8.8 7.5-- 6.6----- 0.0 0.0 0.0- 0.0 6.6-------
1994-06-23 12.5 16.8 10.7 7.2-- 6.8----- 3.8 3.8 0.0- 0.0 9.5-------
1994-06-22 16.2 22.3 10.9 8.6-- 7.3----- 0.0 0.0 0.0- 0.0 2.5-------
1994-06-21 14.7 20.4 6.2 3.6-- 5.1----- 0.0 0.0 0.0- 0.0 13.7-------
1994-06-20 12.5 16.0 10.7 10.2-- 6.5----- 0.0 0.0 0.0- 0.0 7.9-------
1994-06-19 12.4 14.8 9.6 8.8-- 8.0----- 2.5 1.8 0.7- 0.0 0.0-------
1994-06-18 11.2 16.7 3.7 1.0-- 6.5----- 3.2 0.0 3.2- 0.0 8.6-------
1994-06-17 8.3 13.2 5.2 3.2-- 7.0----- 5.5 5.5 0.0- 0.0 6.5-------
1994-06-16 10.2 13.4 7.5 5.1-- 7.0----- 6.5 6.5 0.0- 0.0 3.3-------
1040.7 ms

 

Źródłem pochodzenia danych jest Instytut Meteorologii i Gospodarki Wodnej – Państwowy Instytut Badawczy. Dane Instytutu Meteorologii i Gospodarki Wodnej – Państwowego Instytutu Badawczego zostały przetworzone.

Dane źródłowe można odnaleźć na stronie https://dane.imgw.pl